createdAt,value
2023-06-07T00:00:02.267Z,69.15
2023-06-07T00:02:42.370Z,69.37
2023-06-07T00:04:54.929Z,69.20
2023-06-07T00:07:21.384Z,69.05
2023-06-07T00:09:47.924Z,68.97
2023-06-07T00:12:14.364Z,69.02
2023-06-07T00:14:40.776Z,69.20
2023-06-07T00:17:07.236Z,69.49
2023-06-07T00:19:33.754Z,69.46
2023-06-07T00:22:00.358Z,69.71
2023-06-07T00:24:26.834Z,69.78
2023-06-07T00:26:53.354Z,69.74
2023-06-07T00:29:19.798Z,70.30
2023-06-07T00:31:46.226Z,70.16
2023-06-07T00:34:12.683Z,70.27
2023-06-07T00:36:39.182Z,70.44
2023-06-07T00:39:05.773Z,70.30
2023-06-07T00:41:32.275Z,70.13
2023-06-07T00:43:58.694Z,70.34
2023-06-07T00:46:25.122Z,70.31
2023-06-07T00:48:51.670Z,70.48
2023-06-07T00:51:18.106Z,70.55
2023-06-07T00:53:44.526Z,71.03
2023-06-07T00:56:11.075Z,70.80
2023-06-07T00:58:37.500Z,70.92
2023-06-07T01:01:04.042Z,70.93
2023-06-07T01:03:30.579Z,70.95
2023-06-07T01:05:56.897Z,71.02
2023-06-07T01:08:23.444Z,70.83
2023-06-07T01:10:49.872Z,71.10
2023-06-07T01:13:16.411Z,70.98
2023-06-07T01:15:42.992Z,71.20
2023-06-07T01:18:09.425Z,71.28
2023-06-07T01:20:35.806Z,71.03
2023-06-07T01:23:02.354Z,71.23
2023-06-07T01:25:28.881Z,71.28
2023-06-07T01:27:55.304Z,71.04
2023-06-07T01:30:21.859Z,71.01
2023-06-07T01:32:48.404Z,70.87
2023-06-07T01:35:14.942Z,70.55
2023-06-07T01:37:41.346Z,70.37
2023-06-07T01:40:07.777Z,70.43
2023-06-07T01:42:34.327Z,70.39
2023-06-07T01:45:00.781Z,70.15
2023-06-07T01:47:27.325Z,70.09
2023-06-07T01:49:53.688Z,70.22
2023-06-07T01:52:20.162Z,70.42
2023-06-07T01:54:46.695Z,70.28
2023-06-07T01:57:13.113Z,70.46
2023-06-07T01:59:39.577Z,70.17
2023-06-07T02:02:06.080Z,70.12
2023-06-07T02:04:32.534Z,70.14
2023-06-07T02:06:59.053Z,70.09
2023-06-07T02:09:25.600Z,70.02
2023-06-07T02:11:52.139Z,70.24
2023-06-07T02:14:18.554Z,70.04
2023-06-07T02:16:45.066Z,70.25
2023-06-07T02:19:11.521Z,70.42
2023-06-07T02:21:37.973Z,70.35
2023-06-07T02:24:04.477Z,70.50
2023-06-07T02:26:30.938Z,70.56
2023-06-07T02:28:57.485Z,70.88
2023-06-07T02:31:24.028Z,70.90
2023-06-07T02:33:50.548Z,71.17
2023-06-07T02:36:16.981Z,71.24
2023-06-07T02:38:43.518Z,71.32
2023-06-07T02:41:09.935Z,71.42
2023-06-07T02:43:36.553Z,71.36
2023-06-07T02:46:03.045Z,71.79
2023-06-07T02:48:29.542Z,71.85
2023-06-07T02:50:55.983Z,71.64
2023-06-07T02:53:22.727Z,71.76
2023-06-07T02:55:49.171Z,71.82
2023-06-07T02:58:15.687Z,71.77
2023-06-07T03:00:42.254Z,71.99
2023-06-07T03:03:08.868Z,71.99
2023-06-07T03:05:35.207Z,71.92
2023-06-07T03:08:01.732Z,71.81
2023-06-07T03:10:28.190Z,72.00
2023-06-07T03:12:54.811Z,72.20
2023-06-07T03:15:21.335Z,72.17
2023-06-07T03:17:47.964Z,72.39
2023-06-07T03:20:14.423Z,72.63
2023-06-07T03:22:40.949Z,72.70
2023-06-07T03:25:07.483Z,73.00
2023-06-07T03:27:33.986Z,73.13
2023-06-07T03:30:00.456Z,73.22
2023-06-07T03:32:27.076Z,73.34
2023-06-07T03:34:53.467Z,73.31
2023-06-07T03:37:19.951Z,73.65
2023-06-07T03:39:46.491Z,73.72
2023-06-07T03:42:12.978Z,73.73
2023-06-07T03:44:39.468Z,73.75
2023-06-07T03:47:06.011Z,74.15
2023-06-07T03:49:32.537Z,74.29
2023-06-07T03:51:58.972Z,74.44
2023-06-07T03:54:25.495Z,74.37
2023-06-07T03:56:52.028Z,74.60
2023-06-07T03:59:18.487Z,74.54
2023-06-07T04:01:44.990Z,74.75
2023-06-07T04:04:11.599Z,74.78
2023-06-07T04:06:37.859Z,74.81
2023-06-07T04:09:04.296Z,74.52
2023-06-07T04:11:30.991Z,74.35
2023-06-07T04:13:57.397Z,74.21
2023-06-07T04:16:23.891Z,73.96
2023-06-07T04:18:50.328Z,73.89
2023-06-07T04:21:16.767Z,73.64
2023-06-07T04:23:43.259Z,73.27
2023-06-07T04:26:09.886Z,73.10
2023-06-07T04:28:36.281Z,72.37
2023-06-07T04:31:02.815Z,72.14
2023-06-07T04:33:29.409Z,71.96
2023-06-07T04:35:55.913Z,71.76
2023-06-07T04:38:23.391Z,71.40
2023-06-07T04:40:48.855Z,70.56
2023-06-07T04:43:15.391Z,70.76
2023-06-07T04:45:41.929Z,70.00
2023-06-07T04:48:08.508Z,69.41
2023-06-07T04:50:34.999Z,69.42
2023-06-07T04:53:01.439Z,68.27
2023-06-07T04:55:27.943Z,69.04
2023-06-07T04:57:54.495Z,68.94
2023-06-07T05:00:21.185Z,68.94
2023-06-07T05:02:47.764Z,69.01
2023-06-07T05:05:14.212Z,69.37
2023-06-07T05:07:40.629Z,69.23
2023-06-07T05:10:07.584Z,68.74
2023-06-07T05:12:33.935Z,68.30
2023-06-07T05:15:00.452Z,68.65
2023-06-07T05:17:26.885Z,68.16
2023-06-07T05:19:53.309Z,67.03
2023-06-07T05:22:19.849Z,67.41
2023-06-07T05:24:46.307Z,67.40
2023-06-07T05:27:12.831Z,66.95
2023-06-07T05:29:39.389Z,66.12
2023-06-07T05:32:08.002Z,64.78
2023-06-07T05:34:34.479Z,64.13
2023-06-07T05:37:00.924Z,63.86
2023-06-07T05:39:27.456Z,63.13
2023-06-07T05:41:53.901Z,62.83
2023-06-07T05:44:20.396Z,63.48
2023-06-07T05:46:47.102Z,63.38
2023-06-07T05:49:13.572Z,62.56
2023-06-07T05:51:40.041Z,63.75
2023-06-07T05:54:06.557Z,63.04
2023-06-07T05:56:33.005Z,61.84
2023-06-07T05:58:59.626Z,60.93
2023-06-07T06:01:26.173Z,60.54
2023-06-07T06:03:52.721Z,58.86
2023-06-07T06:06:19.227Z,55.87
2023-06-07T06:08:46.100Z,57.39
2023-06-07T06:11:12.605Z,55.30
2023-06-07T06:13:39.030Z,56.92
2023-06-07T06:16:05.467Z,54.76
2023-06-07T06:18:31.896Z,52.87
2023-06-07T06:20:58.484Z,54.42
2023-06-07T06:23:24.977Z,56.82
2023-06-07T06:25:51.462Z,58.31
2023-06-07T06:28:17.992Z,59.11
2023-06-07T06:30:46.054Z,59.66
2023-06-07T06:33:12.722Z,59.74
2023-06-07T06:35:42.053Z,59.41
2023-06-07T06:38:08.729Z,58.92
2023-06-07T06:40:35.114Z,57.79
2023-06-07T06:43:01.575Z,58.36
2023-06-07T06:45:28.097Z,56.74
2023-06-07T06:47:54.625Z,55.48
2023-06-07T06:50:31.894Z,55.74
2023-06-07T06:52:47.622Z,55.29
2023-06-07T06:55:16.192Z,55.99
2023-06-07T06:57:42.726Z,55.80
2023-06-07T07:00:09.259Z,55.50
2023-06-07T07:02:35.923Z,54.14
2023-06-07T07:05:02.459Z,52.69
2023-06-07T07:07:28.955Z,52.46
2023-06-07T07:09:55.505Z,50.92
2023-06-07T07:12:22.191Z,51.13
2023-06-07T07:14:51.881Z,51.87
2023-06-07T07:17:15.622Z,52.39
2023-06-07T07:19:42.160Z,52.10
2023-06-07T07:22:08.597Z,49.88
2023-06-07T07:24:35.129Z,50.47
2023-06-07T07:27:01.590Z,51.61
2023-06-07T07:29:29.061Z,50.83
2023-06-07T07:31:54.672Z,51.74
2023-06-07T07:34:21.336Z,51.96
2023-06-07T07:36:47.750Z,51.25
2023-06-07T07:39:14.162Z,48.48
2023-06-07T07:41:40.582Z,46.88
2023-06-07T07:44:07.123Z,47.32
2023-06-07T07:46:33.763Z,45.69
2023-06-07T07:49:00.216Z,42.77
2023-06-07T07:51:26.699Z,44.73
2023-06-07T07:53:53.537Z,45.43
2023-06-07T07:56:19.884Z,44.97
2023-06-07T07:58:46.306Z,46.67
2023-06-07T08:01:12.843Z,46.79
2023-06-07T08:03:39.613Z,46.62
2023-06-07T08:06:05.749Z,46.56
2023-06-07T08:08:32.208Z,46.05
2023-06-07T08:10:58.684Z,45.52
2023-06-07T08:13:25.106Z,45.86
2023-06-07T08:15:51.707Z,45.98
2023-06-07T08:18:18.054Z,46.27
2023-06-07T08:20:44.479Z,46.56
2023-06-07T08:23:12.267Z,47.10
2023-06-07T08:25:37.545Z,46.81
2023-06-07T08:28:04.009Z,46.50
2023-06-07T08:30:30.467Z,46.07
2023-06-07T08:32:56.886Z,44.89
2023-06-07T08:35:23.317Z,45.01
2023-06-07T08:37:49.747Z,45.27
2023-06-07T08:40:18.766Z,46.27
2023-06-07T08:42:42.794Z,45.97
2023-06-07T08:45:09.252Z,45.11
2023-06-07T08:47:35.859Z,45.10
2023-06-07T08:50:02.404Z,45.04
2023-06-07T08:52:28.662Z,44.49
2023-06-07T08:54:55.090Z,45.14
2023-06-07T08:57:21.768Z,45.79
2023-06-07T08:59:48.264Z,46.90
2023-06-07T09:02:14.729Z,46.67
2023-06-07T09:04:41.239Z,46.17
2023-06-07T09:07:07.779Z,44.92
2023-06-07T09:09:34.579Z,44.71
2023-06-07T09:12:00.809Z,44.38
2023-06-07T09:14:27.629Z,45.91
2023-06-07T09:16:54.160Z,45.41
2023-06-07T09:19:20.550Z,46.08
2023-06-07T09:21:46.981Z,45.46
2023-06-07T09:24:13.467Z,45.73
2023-06-07T09:26:40.231Z,44.83
2023-06-07T09:29:06.377Z,44.44
2023-06-07T09:31:33.046Z,44.77
2023-06-07T09:33:59.490Z,44.34
2023-06-07T09:36:25.936Z,43.70
2023-06-07T09:38:52.428Z,44.15
2023-06-07T09:41:18.871Z,43.69
2023-06-07T09:43:45.312Z,43.42
2023-06-07T09:46:11.912Z,43.95
2023-06-07T09:48:38.415Z,44.63
2023-06-07T09:51:04.826Z,43.21
2023-06-07T09:53:31.328Z,43.57
2023-06-07T09:55:57.824Z,43.59
2023-06-07T09:58:24.318Z,43.93
2023-06-07T10:00:50.899Z,43.22
2023-06-07T10:03:17.809Z,44.47
2023-06-07T10:05:44.609Z,44.52
2023-06-07T10:08:11.063Z,44.43
2023-06-07T10:10:37.476Z,45.39
2023-06-07T10:13:03.928Z,45.18
2023-06-07T10:15:30.393Z,45.65
2023-06-07T10:17:57.001Z,44.66
2023-06-07T10:20:23.164Z,45.76
2023-06-07T10:22:49.656Z,45.13
2023-06-07T10:25:16.192Z,45.23
2023-06-07T10:27:42.672Z,45.63
2023-06-07T10:30:09.145Z,46.46
2023-06-07T10:32:35.708Z,46.24
2023-06-07T10:35:02.037Z,46.55
2023-06-07T10:37:28.627Z,47.65
2023-06-07T10:39:55.145Z,48.16
2023-06-07T10:42:21.623Z,47.98
2023-06-07T10:44:48.087Z,48.97
2023-06-07T10:47:14.746Z,48.60
2023-06-07T10:49:41.167Z,48.73
2023-06-07T10:52:07.589Z,48.31
2023-06-07T10:54:34.115Z,48.72
2023-06-07T10:57:00.661Z,47.25
2023-06-07T10:59:27.176Z,47.65
2023-06-07T11:01:53.855Z,47.58
2023-06-07T11:04:20.326Z,47.39
2023-06-07T11:06:46.568Z,47.58
2023-06-07T11:09:13.316Z,48.02
2023-06-07T11:11:39.885Z,47.56
2023-06-07T11:14:06.358Z,47.48
2023-06-07T11:16:32.877Z,47.39
2023-06-07T11:18:59.368Z,47.78
2023-06-07T11:21:25.772Z,48.21
2023-06-07T11:23:52.233Z,47.11
2023-06-07T11:26:18.761Z,46.88
2023-06-07T11:28:45.261Z,47.27
2023-06-07T11:31:11.835Z,47.81
2023-06-07T11:33:38.182Z,48.70
2023-06-07T11:36:04.703Z,49.59
2023-06-07T11:38:31.342Z,48.56
2023-06-07T11:40:57.902Z,48.77
2023-06-07T11:43:24.672Z,49.50
2023-06-07T11:45:51.066Z,48.40
2023-06-07T11:48:17.650Z,47.64
2023-06-07T11:50:44.014Z,47.10
2023-06-07T11:53:13.299Z,46.99
2023-06-07T11:55:37.091Z,46.94
2023-06-07T11:58:03.631Z,47.94
2023-06-07T12:00:30.257Z,48.36
2023-06-07T12:02:57.036Z,48.16
2023-06-07T12:05:23.327Z,47.96
2023-06-07T12:07:50.261Z,47.89
2023-06-07T12:10:16.805Z,48.49
2023-06-07T12:12:43.476Z,48.77
2023-06-07T12:15:10.292Z,48.09
2023-06-07T12:17:36.897Z,48.56
2023-06-07T12:20:03.561Z,49.44
2023-06-07T12:22:29.921Z,49.17
2023-06-07T12:24:56.730Z,49.32
2023-06-07T12:27:24.507Z,49.17
2023-06-07T12:29:53.349Z,49.42
2023-06-07T12:32:19.856Z,49.12
2023-06-07T12:34:46.363Z,49.47
2023-06-07T12:37:13.005Z,49.67
2023-06-07T12:39:39.442Z,49.97
2023-06-07T12:42:05.957Z,50.41
2023-06-07T12:44:32.515Z,50.86
2023-06-07T12:47:00.155Z,51.49
2023-06-07T12:49:26.559Z,51.37
2023-06-07T12:51:52.940Z,51.06
2023-06-07T12:54:19.392Z,51.52
2023-06-07T12:56:45.866Z,52.32
2023-06-07T12:59:12.336Z,53.17
2023-06-07T13:01:39.008Z,53.53
2023-06-07T13:04:05.675Z,53.69
2023-06-07T13:06:32.049Z,54.24
2023-06-07T13:08:58.531Z,54.39
2023-06-07T13:11:25.019Z,54.56
2023-06-07T13:13:51.635Z,54.49
2023-06-07T13:16:18.194Z,54.47
2023-06-07T13:18:45.697Z,54.26
2023-06-07T13:21:12.057Z,54.29
2023-06-07T13:23:38.476Z,54.84
2023-06-07T13:26:04.933Z,54.95
2023-06-07T13:28:31.971Z,53.73
2023-06-07T13:30:58.527Z,53.89
2023-06-07T13:33:25.056Z,54.57
2023-06-07T13:35:51.587Z,53.84
2023-06-07T13:38:17.992Z,53.75
2023-06-07T13:40:44.460Z,54.49
2023-06-07T13:43:10.863Z,55.42
2023-06-07T13:45:37.361Z,55.34
2023-06-07T13:48:03.903Z,54.73
2023-06-07T13:50:30.363Z,55.43
2023-06-07T13:52:56.779Z,55.63
2023-06-07T13:55:23.256Z,54.31
2023-06-07T13:57:49.739Z,54.34
2023-06-07T14:00:16.334Z,53.01
2023-06-07T14:02:43.063Z,53.61
2023-06-07T14:05:09.422Z,54.49
2023-06-07T14:07:35.835Z,54.48
2023-06-07T14:10:02.380Z,54.35
2023-06-07T14:12:28.890Z,53.64
2023-06-07T14:14:55.346Z,53.84
2023-06-07T14:17:21.892Z,53.72
2023-06-07T14:19:48.429Z,54.09
2023-06-07T14:22:17.157Z,54.63
2023-06-07T14:24:41.266Z,54.32
2023-06-07T14:27:07.698Z,54.05
2023-06-07T14:29:34.197Z,54.45
2023-06-07T14:32:00.814Z,55.15
2023-06-07T14:34:27.081Z,56.50
2023-06-07T14:36:53.688Z,56.67
2023-06-07T14:39:20.177Z,56.94
2023-06-07T14:41:46.715Z,56.64
2023-06-07T14:44:13.268Z,57.99
2023-06-07T14:46:39.871Z,58.98
2023-06-07T14:49:06.319Z,60.09
2023-06-07T14:51:32.780Z,60.03
2023-06-07T14:53:59.283Z,61.02
2023-06-07T14:56:25.710Z,61.35
2023-06-07T14:58:52.260Z,61.58
2023-06-07T15:01:18.952Z,61.69
2023-06-07T15:03:45.345Z,61.85
2023-06-07T15:06:11.650Z,61.65
2023-06-07T15:08:38.289Z,62.17
2023-06-07T15:11:04.854Z,61.71
2023-06-07T15:13:31.256Z,62.41
2023-06-07T15:15:57.734Z,63.03
2023-06-07T15:18:24.187Z,62.94
2023-06-07T15:20:50.671Z,63.74
2023-06-07T15:23:17.220Z,64.08
2023-06-07T15:25:43.676Z,64.19
2023-06-07T15:28:10.133Z,64.73
2023-06-07T15:30:36.635Z,64.74
2023-06-07T15:33:03.123Z,64.70
2023-06-07T15:35:29.495Z,65.08
2023-06-07T15:37:56.066Z,65.07
2023-06-07T15:40:22.508Z,65.68
2023-06-07T15:42:48.940Z,65.43
2023-06-07T15:45:16.541Z,65.38
2023-06-07T15:47:43.025Z,65.00
2023-06-07T15:50:09.495Z,63.54
2023-06-07T15:52:35.946Z,64.44
2023-06-07T15:55:02.493Z,64.62
2023-06-07T15:57:29.007Z,64.53
2023-06-07T15:59:55.549Z,64.54
2023-06-07T16:02:22.029Z,63.77
2023-06-07T16:04:49.262Z,63.93
2023-06-07T16:07:15.616Z,63.57
2023-06-07T16:09:42.079Z,63.17
2023-06-07T16:12:08.523Z,61.59
2023-06-07T16:14:34.958Z,61.82
2023-06-07T16:17:01.453Z,61.22
2023-06-07T16:19:27.960Z,61.79
2023-06-07T16:21:54.764Z,62.41
2023-06-07T16:24:21.883Z,62.78
2023-06-07T16:26:48.448Z,63.17
2023-06-07T16:29:14.997Z,63.67
2023-06-07T16:31:41.517Z,65.65
2023-06-07T16:34:08.070Z,67.68
2023-06-07T16:36:34.488Z,68.49
2023-06-07T16:39:01.041Z,69.15
2023-06-07T16:41:27.499Z,69.58
2023-06-07T16:43:53.933Z,69.55
2023-06-07T16:46:20.469Z,70.79
2023-06-07T16:48:46.971Z,70.64
2023-06-07T16:51:13.415Z,70.72
2023-06-07T16:53:39.834Z,70.88
2023-06-07T16:56:06.394Z,71.11
2023-06-07T16:58:32.895Z,71.17
2023-06-07T17:00:59.807Z,71.39
2023-06-07T17:03:26.512Z,71.60
2023-06-07T17:05:52.818Z,72.09
2023-06-07T17:08:19.367Z,72.41
2023-06-07T17:10:45.951Z,72.88
2023-06-07T17:13:12.412Z,73.06
2023-06-07T17:15:38.929Z,73.24
2023-06-07T17:18:05.460Z,73.60
2023-06-07T17:20:31.844Z,73.63
2023-06-07T17:22:58.253Z,73.96
2023-06-07T17:25:24.688Z,73.95
2023-06-07T17:27:51.231Z,74.03
2023-06-07T17:30:17.775Z,74.22
2023-06-07T17:32:44.240Z,74.01
2023-06-07T17:35:10.721Z,74.00
2023-06-07T17:37:37.188Z,74.25
2023-06-07T17:40:06.061Z,74.50
2023-06-07T17:42:32.381Z,74.68
2023-06-07T17:44:58.927Z,75.00
2023-06-07T17:47:25.413Z,75.31
2023-06-07T17:49:51.943Z,75.70
2023-06-07T17:52:23.193Z,75.77
2023-06-07T17:54:45.056Z,75.86
2023-06-07T17:57:11.644Z,75.94
2023-06-07T17:59:38.199Z,76.47
2023-06-07T18:02:04.819Z,76.36
2023-06-07T18:04:31.417Z,76.74
2023-06-07T18:06:58.078Z,76.97
2023-06-07T18:09:24.393Z,77.16
2023-06-07T18:11:50.920Z,77.38
2023-06-07T18:14:17.340Z,78.00
2023-06-07T18:16:43.895Z,78.36
2023-06-07T18:19:10.433Z,78.39
2023-06-07T18:21:37.218Z,78.81
2023-06-07T18:24:03.673Z,79.29
2023-06-07T18:26:30.491Z,79.55
2023-06-07T18:28:56.992Z,79.73
2023-06-07T18:31:23.506Z,79.82
2023-06-07T18:33:50.001Z,80.41
2023-06-07T18:36:16.442Z,80.57
2023-06-07T18:38:42.910Z,81.17
2023-06-07T18:41:09.336Z,81.68
2023-06-07T18:43:35.766Z,82.05
2023-06-07T18:46:02.230Z,82.45
2023-06-07T18:48:28.666Z,82.34
2023-06-07T18:50:55.182Z,83.02
2023-06-07T18:53:21.719Z,83.41
2023-06-07T18:55:48.173Z,83.48
2023-06-07T18:58:15.472Z,83.68
2023-06-07T19:00:41.269Z,84.04
2023-06-07T19:03:07.883Z,84.19
2023-06-07T19:05:34.125Z,84.39
2023-06-07T19:08:00.629Z,84.70
2023-06-07T19:10:27.176Z,84.45
2023-06-07T19:12:53.700Z,85.14
2023-06-07T19:15:22.480Z,85.54
2023-06-07T19:17:48.957Z,86.22
2023-06-07T19:20:15.352Z,86.55
2023-06-07T19:22:41.874Z,86.95
2023-06-07T19:25:08.728Z,86.77
2023-06-07T19:27:34.932Z,86.98
2023-06-07T19:30:01.404Z,87.26
2023-06-07T19:32:27.853Z,87.72
2023-06-07T19:34:54.330Z,87.84
2023-06-07T19:37:20.858Z,88.26
2023-06-07T19:39:47.426Z,87.87
2023-06-07T19:42:15.520Z,88.13
2023-06-07T19:44:40.444Z,88.61
2023-06-07T19:47:06.863Z,88.46
2023-06-07T19:49:33.425Z,88.78
2023-06-07T19:52:00.394Z,88.73
2023-06-07T19:54:26.951Z,89.28
2023-06-07T19:56:53.488Z,89.24
2023-06-07T19:59:19.904Z,89.24
2023-06-07T20:01:46.498Z,89.60
2023-06-07T20:04:12.953Z,89.55
2023-06-07T20:06:39.424Z,89.77
2023-06-07T20:09:05.844Z,89.71
2023-06-07T20:11:32.396Z,89.59
2023-06-07T20:13:58.938Z,89.40
2023-06-07T20:16:25.412Z,89.32
2023-06-07T20:18:51.905Z,89.40
2023-06-07T20:21:18.459Z,89.63
2023-06-07T20:23:44.953Z,89.53
2023-06-07T20:26:11.448Z,89.78
2023-06-07T20:28:37.968Z,89.73
2023-06-07T20:31:04.351Z,89.83
2023-06-07T20:33:30.899Z,90.28
2023-06-07T20:35:57.329Z,90.46
2023-06-07T20:38:23.876Z,90.35
2023-06-07T20:40:50.399Z,90.74
2023-06-07T20:43:16.837Z,90.57
2023-06-07T20:45:43.403Z,90.60
2023-06-07T20:48:09.989Z,91.06
2023-06-07T20:50:36.326Z,91.33
2023-06-07T20:53:02.783Z,91.40
2023-06-07T20:55:29.190Z,91.72
2023-06-07T20:57:55.657Z,91.74
2023-06-07T21:00:22.159Z,91.80
2023-06-07T21:02:48.723Z,92.21
2023-06-07T21:05:15.102Z,92.14
2023-06-07T21:07:41.588Z,92.49
2023-06-07T21:10:08.247Z,92.42
2023-06-07T21:12:34.559Z,92.64
2023-06-07T21:15:00.971Z,92.59
2023-06-07T21:17:27.439Z,93.02
2023-06-07T21:19:54.152Z,93.23
2023-06-07T21:22:20.695Z,93.63
2023-06-07T21:24:47.099Z,93.71
2023-06-07T21:27:13.657Z,93.88
2023-06-07T21:29:40.121Z,93.75
2023-06-07T21:32:06.698Z,93.61
2023-06-07T21:34:33.051Z,93.46
2023-06-07T21:36:59.529Z,93.45
2023-06-07T21:39:26.026Z,92.59
2023-06-07T21:41:54.847Z,92.20
2023-06-07T21:44:22.875Z,91.11
2023-06-07T21:46:47.881Z,90.26
2023-06-07T21:49:14.408Z,89.89
2023-06-07T21:51:40.964Z,89.56
2023-06-07T21:54:07.490Z,88.77
2023-06-07T21:56:33.954Z,88.39
2023-06-07T21:59:00.455Z,87.94
2023-06-07T22:01:27.078Z,87.50
2023-06-07T22:03:53.504Z,87.12
2023-06-07T22:06:20.066Z,87.09
2023-06-07T22:08:46.465Z,86.80
2023-06-07T22:11:13.094Z,86.07
2023-06-07T22:13:39.505Z,85.61
2023-06-07T22:16:05.963Z,86.01
2023-06-07T22:18:32.393Z,85.27
2023-06-07T22:20:58.875Z,84.83
2023-06-07T22:23:25.317Z,84.42
2023-06-07T22:25:51.840Z,83.32
2023-06-07T22:28:18.369Z,83.04
2023-06-07T22:30:44.917Z,82.91
2023-06-07T22:33:11.372Z,82.47
2023-06-07T22:35:37.737Z,82.11
2023-06-07T22:38:04.206Z,81.61
2023-06-07T22:40:30.751Z,81.48
2023-06-07T22:42:57.150Z,81.15
2023-06-07T22:45:23.718Z,80.72
2023-06-07T22:47:50.203Z,80.64
2023-06-07T22:50:16.690Z,80.27
2023-06-07T22:52:43.127Z,79.58
2023-06-07T22:55:09.667Z,79.57
2023-06-07T22:57:36.188Z,79.51
2023-06-07T23:00:02.746Z,78.99
2023-06-07T23:02:29.034Z,79.04
2023-06-07T23:04:55.476Z,79.21
2023-06-07T23:07:21.906Z,79.51
2023-06-07T23:09:48.339Z,80.31
2023-06-07T23:12:14.909Z,81.14
2023-06-07T23:14:41.318Z,81.68
2023-06-07T23:17:07.752Z,82.03
2023-06-07T23:19:34.283Z,82.38
2023-06-07T23:22:00.707Z,82.80
2023-06-07T23:24:27.260Z,82.72
2023-06-07T23:26:53.797Z,82.86
2023-06-07T23:29:20.435Z,81.98
2023-06-07T23:31:46.878Z,81.68
2023-06-07T23:34:13.410Z,81.79
2023-06-07T23:36:40.456Z,81.18
2023-06-07T23:39:06.972Z,81.25
2023-06-07T23:41:33.397Z,80.91
2023-06-07T23:43:59.894Z,80.84
2023-06-07T23:46:26.286Z,79.88
2023-06-07T23:48:52.829Z,79.77
2023-06-07T23:51:19.335Z,79.32
2023-06-07T23:53:45.788Z,79.49
2023-06-07T23:56:12.207Z,79.50
2023-06-07T23:58:38.753Z,79.22
